Time;durP1;ratioP1;P1;durP2;ratioP2;P2;SDS_P1;SDS_P2;PMS_P1;PMS_P2;Temp;Humidity;BMP_temperature;BMP_pressure;BME280_temperature;BME280_humidity;BME280_pressure;Samples;Min_cycle;Max_cycle;Signal;HPM_P1;HPM_P2
2022/08/10 00:01:07;;;;;;;0.47;0.47;;;;;;;20.55;59.47;96126.94;4287351;33;20178;-61
2022/08/10 00:03:32;;;;;;;0.63;0.63;;;;;;;20.47;59.29;96130.53;4283755;33;20179;-61
2022/08/10 00:05:57;;;;;;;0.60;0.60;;;;;;;20.48;58.92;96129.41;4282682;33;20224;-61
2022/08/10 00:08:26;;;;;;;0.63;0.63;;;;;;;20.56;58.98;96127.72;4284568;33;20268;-61
2022/08/10 00:10:54;;;;;;;2.20;0.90;;;;;;;20.52;58.84;96129.53;4285158;33;20202;-61
2022/08/10 00:13:20;;;;;;;1.40;0.97;;;;;;;20.40;58.26;96132.97;4272103;33;20207;-61
2022/08/10 00:15:45;;;;;;;0.30;0.30;;;;;;;20.24;58.96;96124.75;4286306;33;20190;-62
2022/08/10 00:18:11;;;;;;;0.70;0.70;;;;;;;20.25;59.43;96133.62;4271529;33;20213;-61
2022/08/10 00:20:36;;;;;;;0.37;0.37;;;;;;;20.17;59.15;96132.59;4285401;33;20277;-63
2022/08/10 00:23:02;;;;;;;0.40;0.40;;;;;;;20.14;58.09;96132.50;4273841;33;20214;-61
2022/08/10 00:25:27;;;;;;;0.33;0.33;;;;;;;20.07;59.34;96134.94;4284586;33;20195;-61
2022/08/10 00:27:52;;;;;;;0.40;0.40;;;;;;;19.98;59.74;96134.22;4285468;33;20206;-61
2022/08/10 00:30:18;;;;;;;0.20;0.20;;;;;;;20.05;60.96;96129.09;4297737;33;20237;-61
2022/08/10 00:32:43;;;;;;;0.73;0.73;;;;;;;20.15;60.67;96132.16;4289603;33;20195;-61
2022/08/10 00:35:09;;;;;;;2.67;0.70;;;;;;;20.13;60.77;96130.91;4293990;33;20246;-62
2022/08/10 00:37:34;;;;;;;0.40;0.40;;;;;;;20.12;61.38;96129.34;4285568;33;20274;-61
2022/08/10 00:40:00;;;;;;;0.70;0.70;;;;;;;19.88;59.75;96135.44;4271149;33;20215;-61
2022/08/10 00:42:25;;;;;;;1.40;0.70;;;;;;;19.92;61.78;96138.28;4283141;33;20194;-61
2022/08/10 00:44:52;;;;;;;0.57;0.57;;;;;;;19.73;60.65;96144.16;4269906;33;20179;-61
2022/08/10 00:47:18;;;;;;;0.43;0.43;;;;;;;19.58;61.36;96129.37;4282501;33;20212;-61
2022/08/10 00:49:44;;;;;;;0.20;0.20;;;;;;;19.55;60.91;96138.91;4291882;33;20209;-61
2022/08/10 00:52:12;;;;;;;0.40;0.40;;;;;;;19.61;63.47;96133.34;4285667;33;20183;-61
2022/08/10 00:54:39;;;;;;;0.53;0.53;;;;;;;19.67;62.07;96134.72;4283410;33;20187;-62
2022/08/10 00:57:04;;;;;;;0.20;0.20;;;;;;;19.53;61.95;96132.31;4276117;33;20229;-61
2022/08/10 00:59:31;;;;;;;0.53;0.50;;;;;;;19.46;61.00;96134.69;4289735;33;20183;-61
2022/08/10 01:01:57;;;;;;;0.60;0.60;;;;;;;19.32;63.44;96126.91;4296388;33;20265;-61
2022/08/10 01:04:23;;;;;;;0.57;0.57;;;;;;;19.51;63.12;96123.78;4287624;33;20194;-61
2022/08/10 01:07:25;;;;;;;0.47;0.47;;;;;;;19.47;63.32;96128.22;4280345;33;20233;-61
2022/08/10 01:10:05;;;;;;;0.57;0.57;;;;;;;19.52;63.72;96125.34;4292222;33;20220;-61
2022/08/10 01:12:40;;;;;;;0.50;0.50;;;;;;;19.68;63.93;96123.59;4297533;33;20194;-61
2022/08/10 01:15:25;;;;;;;0.30;0.30;;;;;;;19.80;62.14;96123.63;4293832;33;20244;-61
2022/08/10 01:18:09;;;;;;;0.87;0.87;;;;;;;19.64;63.30;96128.06;4291480;33;20201;-61
2022/08/10 01:20:52;;;;;;;0.97;0.97;;;;;;;19.57;63.45;96125.12;4277443;33;20194;-61
2022/08/10 01:23:42;;;;;;;0.50;0.50;;;;;;;19.38;61.97;96122.88;4275912;33;20205;-61
2022/08/10 01:26:26;;;;;;;0.70;0.70;;;;;;;19.20;62.98;96133.00;4298406;33;20205;-61
2022/08/10 01:29:29;;;;;;;0.63;0.63;;;;;;;19.25;64.69;96117.78;4265875;33;20307;-61
2022/08/10 01:32:01;;;;;;;0.53;0.53;;;;;;;19.47;65.03;96120.91;4297287;33;20190;-61
2022/08/10 01:34:32;;;;;;;0.77;0.77;;;;;;;19.36;63.22;96116.25;4279151;33;20202;-61
2022/08/10 01:37:07;;;;;;;0.60;0.60;;;;;;;19.27;63.50;96118.25;4301341;33;20212;-61
2022/08/10 01:39:38;;;;;;;0.70;0.70;;;;;;;19.28;64.81;96122.50;4301363;33;20190;-61
2022/08/10 01:42:05;;;;;;;0.73;0.73;;;;;;;19.41;65.48;96116.84;4298316;33;20221;-61
2022/08/10 01:44:38;;;;;;;0.47;0.47;;;;;;;19.37;63.46;96120.50;4288495;33;20195;-61
2022/08/10 01:50:03;;;;;;;0.40;0.40;;;;;;;19.51;62.65;96126.47;4276884;33;20226;-61
2022/08/10 01:52:29;;;;;;;0.60;0.60;;;;;;;19.12;63.63;96131.16;4284841;33;20217;-61
2022/08/10 01:54:57;;;;;;;0.53;0.53;;;;;;;19.13;64.04;96121.19;4279351;33;20199;-61
2022/08/10 01:57:24;;;;;;;0.70;0.70;;;;;;;18.96;64.53;96122.09;4299497;33;20194;-61
2022/08/10 01:59:51;;;;;;;0.90;0.90;;;;;;;19.01;63.41;96119.22;4298231;33;20194;-61
2022/08/10 02:02:19;;;;;;;0.60;0.60;;;;;;;18.86;64.79;96114.41;4282415;33;20242;-61
2022/08/10 02:04:47;;;;;;;0.60;0.60;;;;;;;18.96;65.66;96113.22;4301353;33;20190;-61
2022/08/10 02:07:17;;;;;;;0.63;0.63;;;;;;;18.90;64.83;96112.66;4299162;33;20220;-61
2022/08/10 02:09:46;;;;;;;0.50;0.50;;;;;;;18.90;64.94;96117.25;4287724;33;20186;-61
2022/08/10 02:12:17;;;;;;;0.30;0.30;;;;;;;19.05;65.06;96120.16;4284453;33;20206;-61
2022/08/10 02:14:54;;;;;;;0.77;0.77;;;;;;;19.23;65.57;96115.41;4299274;33;20195;-61
2022/08/10 02:17:24;;;;;;;0.97;0.80;;;;;;;18.95;64.93;96117.81;4287842;33;20194;-61
2022/08/10 02:19:52;;;;;;;0.70;0.70;;;;;;;19.12;64.81;96106.94;4294707;33;20186;-61
2022/08/10 02:22:19;;;;;;;0.60;0.60;;;;;;;18.91;64.77;96108.06;4287709;33;20210;-61
2022/08/10 02:24:45;;;;;;;0.80;0.80;;;;;;;18.97;65.53;96106.75;4297402;33;20202;-61
2022/08/10 02:27:13;;;;;;;0.47;0.47;;;;;;;18.88;65.48;96112.19;4301271;33;20217;-61
2022/08/10 02:29:42;;;;;;;0.90;0.90;;;;;;;19.06;64.13;96110.16;4296723;33;20316;-62
2022/08/10 02:32:09;;;;;;;0.80;0.80;;;;;;;19.12;65.17;96109.62;4276731;33;20210;-61
2022/08/10 02:34:38;;;;;;;0.77;0.77;;;;;;;19.18;64.73;96102.16;4285688;33;20210;-61
2022/08/10 02:37:05;;;;;;;0.93;0.93;;;;;;;19.22;64.80;96108.47;4299579;33;20199;-61
2022/08/10 02:39:31;;;;;;;0.80;0.80;;;;;;;19.20;64.38;96099.94;4282958;33;20237;-61
2022/08/10 02:42:02;;;;;;;1.80;0.83;;;;;;;19.33;65.49;96096.16;4299285;33;20209;-61
2022/08/10 02:44:47;;;;;;;3.87;0.93;;;;;;;19.10;65.06;96095.75;4281565;33;20221;-61
2022/08/10 02:47:26;;;;;;;0.23;0.23;;;;;;;19.08;65.07;96100.66;4291393;33;20290;-61
2022/08/10 02:50:13;;;;;;;3.10;1.43;;;;;;;18.81;63.27;96101.16;4295009;33;20245;-61
2022/08/10 02:52:59;;;;;;;0.33;0.33;;;;;;;18.99;66.22;96099.94;4274292;33;20233;-61
2022/08/10 02:55:37;;;;;;;0.63;0.63;;;;;;;18.94;66.02;96099.31;4296901;33;20227;-62
2022/08/10 02:58:09;;;;;;;0.80;0.80;;;;;;;18.91;64.08;96098.09;4297012;33;20223;-61
2022/08/10 03:00:45;;;;;;;1.03;1.03;;;;;;;19.04;64.42;96094.34;4297648;33;20253;-61
2022/08/10 03:03:18;;;;;;;1.33;1.23;;;;;;;19.00;65.66;96096.13;4285835;33;20198;-61
2022/08/10 03:05:46;;;;;;;0.67;0.67;;;;;;;18.93;64.67;96095.84;4296712;33;20194;-61
2022/08/10 03:08:17;;;;;;;0.70;0.70;;;;;;;18.94;65.33;96096.63;4297719;33;20191;-61
2022/08/10 03:10:44;;;;;;;0.70;0.70;;;;;;;18.97;65.07;96094.09;4297204;33;20204;-61
2022/08/10 03:13:11;;;;;;;0.63;0.63;;;;;;;19.07;65.38;96091.03;4281298;33;20234;-61
2022/08/10 03:15:39;;;;;;;0.87;0.87;;;;;;;19.04;64.32;96086.28;4294872;33;20187;-62
2022/08/10 03:18:06;;;;;;;0.40;0.40;;;;;;;18.88;63.31;96085.31;4289820;33;20225;-61
2022/08/10 03:20:38;;;;;;;0.67;0.67;;;;;;;18.95;63.77;96088.25;4291765;33;20190;-61
2022/08/10 03:23:08;;;;;;;0.30;0.30;;;;;;;18.86;64.26;96091.00;4298066;33;20213;-61
2022/08/10 03:25:34;;;;;;;0.80;0.80;;;;;;;18.83;64.72;96083.59;4298658;33;20210;-61
2022/08/10 03:28:00;;;;;;;0.57;0.57;;;;;;;18.79;65.27;96084.56;4288634;33;20229;-61
2022/08/10 03:30:26;;;;;;;0.60;0.60;;;;;;;18.82;64.59;96083.91;4292598;33;20203;-61
2022/08/10 03:32:53;;;;;;;0.80;0.80;;;;;;;18.97;64.69;96086.03;4286142;33;20213;-61
2022/08/10 03:35:20;;;;;;;0.50;0.50;;;;;;;18.81;63.83;96085.81;4296646;33;20237;-61
2022/08/10 03:37:46;;;;;;;0.70;0.70;;;;;;;18.87;65.51;96086.41;4299314;33;20233;-61
2022/08/10 03:40:11;;;;;;;0.60;0.60;;;;;;;18.99;66.05;96088.38;4296407;33;20186;-61
2022/08/10 03:42:39;;;;;;;0.83;0.70;;;;;;;18.87;64.70;96079.16;4286558;33;20194;-62
2022/08/10 03:45:06;;;;;;;0.53;0.53;;;;;;;19.05;65.58;96077.09;4285605;33;20221;-61
2022/08/10 03:47:35;;;;;;;1.10;1.07;;;;;;;18.85;64.92;96083.28;4278492;33;20221;-61
2022/08/10 03:50:03;;;;;;;0.33;0.33;;;;;;;18.81;65.91;96082.34;4280197;33;20202;-61
2022/08/10 03:52:29;;;;;;;2.10;0.83;;;;;;;19.00;65.97;96084.56;4276083;33;20265;-61
2022/08/10 03:54:54;;;;;;;1.13;1.13;;;;;;;18.91;65.12;96081.19;4282689;33;20194;-61
2022/08/10 03:57:21;;;;;;;0.57;0.57;;;;;;;19.16;65.08;96078.28;4299185;33;20202;-61
2022/08/10 03:59:47;;;;;;;0.53;0.53;;;;;;;19.18;64.54;96078.72;4295267;33;20190;-61
2022/08/10 04:02:13;;;;;;;0.63;0.63;;;;;;;18.97;64.59;96083.31;4285499;33;20228;-61
2022/08/10 04:04:38;;;;;;;0.40;0.40;;;;;;;18.88;65.04;96088.00;4292822;33;20198;-62
2022/08/10 04:07:04;;;;;;;0.43;0.43;;;;;;;18.98;65.16;96086.81;4299724;33;20194;-61
2022/08/10 04:09:32;;;;;;;8.03;1.03;;;;;;;18.82;63.58;96090.09;4284788;33;20204;-61
2022/08/10 04:11:57;;;;;;;0.43;0.43;;;;;;;18.68;65.50;96094.12;4298068;33;20309;-61
2022/08/10 04:14:23;;;;;;;0.90;0.90;;;;;;;18.81;65.30;96103.84;4290925;33;20203;-61
2022/08/10 04:16:48;;;;;;;0.77;0.77;;;;;;;18.60;65.01;96103.03;4293977;33;20293;-61
2022/08/10 04:19:18;;;;;;;0.70;0.70;;;;;;;18.59;64.90;96096.88;4277736;33;20194;-61
2022/08/10 04:21:50;;;;;;;0.60;0.60;;;;;;;18.57;65.85;96095.59;4282886;33;20206;-61
2022/08/10 04:24:22;;;;;;;0.70;0.67;;;;;;;18.70;66.20;96103.47;4286195;33;20212;-61
2022/08/10 04:26:47;;;;;;;0.70;0.70;;;;;;;18.66;64.96;96099.06;4286675;33;20225;-60
2022/08/10 04:29:13;;;;;;;1.43;1.00;;;;;;;18.60;65.50;96109.19;4293091;33;20198;-60
2022/08/10 04:31:42;;;;;;;0.60;0.60;;;;;;;18.69;65.69;96109.16;4286086;33;20235;-61
2022/08/10 04:34:08;;;;;;;0.57;0.50;;;;;;;18.71;65.79;96107.69;4299220;33;20249;-61
2022/08/10 04:36:35;;;;;;;0.40;0.40;;;;;;;18.55;66.07;96118.19;4301320;33;20284;-60
2022/08/10 04:39:00;;;;;;;0.70;0.70;;;;;;;18.44;65.60;96108.94;4293826;33;20186;-60
2022/08/10 04:41:26;;;;;;;0.73;0.73;;;;;;;18.63;66.46;96108.53;4271934;33;20213;-61
2022/08/10 04:43:52;;;;;;;0.60;0.60;;;;;;;18.70;65.33;96113.41;4284524;33;20194;-60
2022/08/10 04:46:17;;;;;;;0.60;0.60;;;;;;;18.66;66.21;96110.59;4284937;33;20214;-61
2022/08/10 04:48:43;;;;;;;0.70;0.70;;;;;;;18.75;65.04;96110.53;4271911;33;20236;-61
2022/08/10 04:51:10;;;;;;;0.63;0.63;;;;;;;18.79;66.17;96112.25;4282988;33;20206;-61
2022/08/10 04:53:36;;;;;;;0.80;0.80;;;;;;;18.65;65.24;96110.91;4275372;33;20190;-61
2022/08/10 04:56:01;;;;;;;0.80;0.80;;;;;;;18.80;64.90;96110.34;4281888;33;20213;-61
2022/08/10 04:58:29;;;;;;;3.10;1.07;;;;;;;18.67;65.37;96116.75;4283900;33;20190;-60
2022/08/10 05:00:54;;;;;;;0.50;0.50;;;;;;;18.63;65.29;96108.53;4281770;33;20198;-61
2022/08/10 05:03:19;;;;;;;0.80;0.80;;;;;;;18.43;64.23;96107.34;4271091;33;20224;-61
2022/08/10 05:05:45;;;;;;;0.90;0.90;;;;;;;18.45;65.08;96110.50;4286785;33;20195;-61
2022/08/10 05:08:10;;;;;;;0.73;0.73;;;;;;;18.20;64.53;96106.03;4285360;33;20255;-61
2022/08/10 05:10:36;;;;;;;0.60;0.60;;;;;;;18.14;63.70;96101.94;4276971;33;20218;-61
2022/08/10 05:13:01;;;;;;;0.90;0.90;;;;;;;18.12;64.63;96104.16;4271461;33;20214;-60
2022/08/10 05:15:26;;;;;;;1.57;1.20;;;;;;;18.11;64.89;96110.62;4287381;33;20393;-61
2022/08/10 05:17:52;;;;;;;0.40;0.40;;;;;;;18.20;66.46;96106.03;4293315;33;20213;-61
2022/08/10 05:20:17;;;;;;;0.67;0.67;;;;;;;18.32;64.79;96114.19;4288814;33;20190;-61
2022/08/10 05:22:44;;;;;;;0.57;0.57;;;;;;;18.16;65.12;96113.16;4298004;33;20245;-61
2022/08/10 05:25:16;;;;;;;1.23;1.23;;;;;;;18.34;65.40;96111.97;4292929;33;20237;-61
2022/08/10 05:27:43;;;;;;;0.53;0.53;;;;;;;18.37;64.98;96115.91;4281302;33;20348;-61
2022/08/10 05:30:12;;;;;;;0.50;0.50;;;;;;;18.42;65.38;96127.28;4285409;33;20245;-61
2022/08/10 05:32:38;;;;;;;1.50;1.40;;;;;;;18.36;64.85;96125.88;4282351;33;20194;-62
2022/08/10 05:35:04;;;;;;;0.33;0.33;;;;;;;18.40;64.18;96113.37;4290906;33;20241;-61
2022/08/10 05:37:31;;;;;;;0.77;0.77;;;;;;;18.62;64.78;96123.09;4297724;33;20222;-61
2022/08/10 05:39:57;;;;;;;1.73;1.30;;;;;;;18.50;62.81;96121.06;4277879;33;20183;-61
2022/08/10 05:42:23;;;;;;;1.33;0.93;;;;;;;18.65;64.97;96117.06;4300731;33;20182;-61
2022/08/10 05:44:49;;;;;;;0.50;0.50;;;;;;;18.59;63.88;96122.94;4294618;33;20182;-61
2022/08/10 05:47:15;;;;;;;0.87;0.87;;;;;;;18.53;62.81;96116.94;4288594;33;20194;-61
2022/08/10 05:49:40;;;;;;;0.60;0.60;;;;;;;18.48;62.85;96117.94;4300620;33;20186;-61
2022/08/10 05:52:06;;;;;;;5.93;0.87;;;;;;;18.32;63.72;96124.16;4302635;33;20194;-61
2022/08/10 05:54:31;;;;;;;1.13;1.13;;;;;;;18.34;63.88;96130.00;4295772;33;20253;-61
2022/08/10 05:56:57;;;;;;;1.43;1.43;;;;;;;18.44;62.89;96133.12;4295978;33;20288;-61
2022/08/10 05:59:26;;;;;;;0.60;0.60;;;;;;;18.20;63.55;96133.69;4283254;33;20198;-61
2022/08/10 06:01:53;;;;;;;2.77;1.27;;;;;;;18.25;63.36;96124.66;4297970;33;20213;-61
2022/08/10 06:04:30;;;;;;;1.00;1.00;;;;;;;18.33;63.35;96131.09;4293295;33;20191;-61
2022/08/10 06:07:00;;;;;;;0.70;0.70;;;;;;;18.38;63.97;96128.25;4275754;33;20198;-61
2022/08/10 06:09:26;;;;;;;0.30;0.30;;;;;;;18.48;63.26;96131.38;4282180;33;20209;-61
2022/08/10 06:11:53;;;;;;;0.53;0.53;;;;;;;18.38;63.69;96133.62;4298418;33;20194;-61
2022/08/10 06:17:04;;;;;;;0.83;0.57;;;;;;;18.67;63.73;96124.81;4285784;33;20217;-61
2022/08/10 06:19:30;;;;;;;0.60;0.60;;;;;;;18.68;63.07;96126.41;4285145;33;20202;-61
2022/08/10 06:22:00;;;;;;;0.93;0.93;;;;;;;18.83;62.15;96128.50;4280948;33;20203;-61
2022/08/10 06:24:27;;;;;;;0.80;0.80;;;;;;;18.93;63.03;96125.44;4289906;33;20254;-61
2022/08/10 06:26:53;;;;;;;4.30;1.57;;;;;;;18.87;62.63;96119.47;4299492;33;20195;-61
2022/08/10 06:29:20;;;;;;;0.30;0.30;;;;;;;19.03;62.86;96122.37;4290570;33;20198;-60
2022/08/10 06:31:49;;;;;;;0.77;0.77;;;;;;;19.18;62.30;96124.47;4284352;33;20242;-60
2022/08/10 06:34:49;;;;;;;1.33;0.70;;;;;;;19.27;62.30;96115.56;4272910;33;20214;-60
2022/08/10 06:37:18;;;;;;;1.67;1.47;;;;;;;19.49;61.65;96126.75;4265451;33;20221;-61
2022/08/10 06:39:44;;;;;;;1.00;0.33;;;;;;;19.69;61.72;96114.41;4284868;33;20206;-60
2022/08/10 06:42:14;;;;;;;0.60;0.60;;;;;;;19.70;60.04;96113.28;4273546;33;20242;-60
2022/08/10 06:45:03;;;;;;;0.40;0.40;;;;;;;19.77;60.02;96115.44;4284979;33;20233;-61
2022/08/10 06:47:52;;;;;;;1.00;1.00;;;;;;;19.85;60.98;96107.28;4281432;33;20216;-61
2022/08/10 06:50:25;;;;;;;0.73;0.73;;;;;;;19.93;60.48;96112.91;4282305;33;20221;-61
2022/08/10 06:52:52;;;;;;;0.93;0.93;;;;;;;20.05;59.95;96102.94;4284160;33;20210;-61
2022/08/10 06:55:21;;;;;;;0.93;0.93;;;;;;;20.07;58.47;96102.59;4283241;33;20252;-61
2022/08/10 06:57:49;;;;;;;0.87;0.87;;;;;;;20.14;58.57;96105.53;4286013;33;20190;-61
2022/08/10 07:00:15;;;;;;;0.43;0.43;;;;;;;20.13;58.32;96099.37;4273815;33;20187;-61
2022/08/10 07:02:49;;;;;;;0.23;0.23;;;;;;;20.04;59.40;96106.75;4272633;33;20258;-61
2022/08/10 07:05:27;;;;;;;13.13;1.27;;;;;;;20.13;59.22;96104.75;4287072;33;20212;-61
2022/08/10 07:07:56;;;;;;;1.03;0.93;;;;;;;20.19;58.13;96106.09;4286654;33;20198;-61
2022/08/10 07:10:24;;;;;;;0.43;0.43;;;;;;;20.31;59.12;96108.03;4283689;33;20187;-61
2022/08/10 07:12:51;;;;;;;0.20;0.20;;;;;;;20.35;58.39;96108.16;4285217;33;20205;-60
2022/08/10 07:15:18;;;;;;;0.53;0.53;;;;;;;20.39;57.85;96101.75;4289176;33;20241;-61
2022/08/10 07:17:45;;;;;;;0.97;0.77;;;;;;;20.44;58.26;96106.16;4281404;33;20197;-61
2022/08/10 07:20:17;;;;;;;6.50;0.77;;;;;;;20.56;57.38;96104.25;4295386;33;20233;-61
2022/08/10 07:22:46;;;;;;;0.33;0.33;;;;;;;20.62;57.17;96094.00;4297072;33;20209;-61
2022/08/10 07:25:14;;;;;;;0.63;0.63;;;;;;;20.71;56.73;96089.28;4297606;33;20222;-62
2022/08/10 07:27:41;;;;;;;3.37;2.43;;;;;;;20.70;57.50;96085.03;4289741;33;20301;-62
2022/08/10 07:30:07;;;;;;;0.70;0.70;;;;;;;20.84;56.61;96085.44;4293191;33;20237;-61
2022/08/10 07:32:33;;;;;;;0.53;0.53;;;;;;;20.97;56.06;96083.53;4284038;33;20246;-61
2022/08/10 07:35:00;;;;;;;0.90;0.60;;;;;;;21.06;56.30;96089.56;4282479;33;20191;-61
2022/08/10 07:37:28;;;;;;;0.70;0.70;;;;;;;21.14;53.69;96083.25;4283831;33;20212;-62
2022/08/10 07:39:54;;;;;;;0.20;0.20;;;;;;;21.20;53.70;96076.50;4282879;33;20210;-62
2022/08/10 07:42:23;;;;;;;0.37;0.37;;;;;;;21.26;53.20;96077.81;4283478;33;20265;-62
2022/08/10 07:44:49;;;;;;;0.50;0.50;;;;;;;21.33;52.67;96084.56;4285043;33;20190;-62
2022/08/10 07:47:50;;;;;;;0.50;0.40;;;;;;;21.40;52.56;96077.47;4286265;33;20202;-62
2022/08/10 07:50:19;;;;;;;0.57;0.57;;;;;;;21.46;52.24;96077.97;4282877;33;20258;-62
2022/08/10 07:52:46;;;;;;;0.50;0.50;;;;;;;21.59;51.19;96083.00;4286115;33;20187;-62
2022/08/10 07:55:15;;;;;;;0.40;0.33;;;;;;;21.56;51.21;96082.91;4285187;33;20207;-62
2022/08/10 07:57:43;;;;;;;0.57;0.57;;;;;;;21.65;51.32;96075.41;4288966;33;20213;-62
2022/08/10 08:00:10;;;;;;;0.30;0.30;;;;;;;21.68;50.89;96085.53;4288090;33;20217;-63
2022/08/10 08:02:44;;;;;;;0.57;0.57;;;;;;;21.66;50.67;96073.50;4287752;33;20213;-62
2022/08/10 08:05:12;;;;;;;0.20;0.20;;;;;;;21.70;50.29;96083.28;4284233;33;20202;-62
2022/08/10 08:07:38;;;;;;;0.40;0.40;;;;;;;21.79;50.12;96078.50;4285069;33;20260;-63
2022/08/10 08:10:07;;;;;;;0.47;0.47;;;;;;;21.87;49.88;96082.94;4286171;33;20191;-62
2022/08/10 08:12:34;;;;;;;0.90;0.90;;;;;;;21.79;50.12;96077.72;4285250;33;20195;-62
2022/08/10 08:15:00;;;;;;;0.40;0.40;;;;;;;21.88;50.02;96081.03;4285959;33;20194;-62
2022/08/10 08:17:26;;;;;;;0.60;0.60;;;;;;;21.94;49.27;96076.94;4292915;33;20190;-62
2022/08/10 08:19:54;;;;;;;1.00;0.97;;;;;;;22.01;48.88;96074.47;4285931;33;20249;-62
2022/08/10 08:22:21;;;;;;;0.30;0.30;;;;;;;22.01;48.50;96081.78;4286349;33;20233;-61
2022/08/10 08:24:48;;;;;;;0.70;0.70;;;;;;;22.15;47.70;96082.13;4294047;33;20208;-62
2022/08/10 08:27:18;;;;;;;0.57;0.57;;;;;;;22.14;47.89;96094.88;4289626;33;20213;-62
2022/08/10 08:29:46;;;;;;;0.50;0.50;;;;;;;22.16;47.02;96075.59;4300501;33;20245;-62
2022/08/10 08:32:15;;;;;;;0.43;0.43;;;;;;;22.20;47.48;96079.19;4290302;33;20205;-62
2022/08/10 08:34:42;;;;;;;0.70;0.70;;;;;;;22.24;46.87;96082.72;4300674;33;20264;-62
2022/08/10 08:37:10;;;;;;;0.40;0.40;;;;;;;22.26;47.17;96088.56;4277055;33;20217;-63
2022/08/10 08:39:35;;;;;;;0.63;0.50;;;;;;;22.35;46.75;96086.50;4284750;33;20220;-62
2022/08/10 08:42:22;;;;;;;0.47;0.47;;;;;;;22.47;46.61;96082.87;4295380;33;20190;-62
2022/08/10 08:44:59;;;;;;;0.57;0.57;;;;;;;22.53;46.19;96087.69;4277555;33;20331;-62
2022/08/10 08:47:38;;;;;;;1.27;0.63;;;;;;;22.61;46.34;96081.31;4291738;33;20198;-62
2022/08/10 08:50:41;;;;;;;0.30;0.30;;;;;;;22.55;45.48;96085.44;4296384;33;20214;-61
2022/08/10 08:53:26;;;;;;;1.00;0.50;;;;;;;22.61;45.19;96080.53;4274200;33;20198;-62
2022/08/10 08:56:05;;;;;;;1.53;1.00;;;;;;;22.62;44.89;96091.00;4281323;33;20463;-62
2022/08/10 08:58:49;;;;;;;0.30;0.30;;;;;;;22.63;45.29;96081.75;4283220;33;20194;-62
2022/08/10 09:02:07;;;;;;;0.70;0.70;;;;;;;22.69;45.16;96079.53;4271640;33;20217;-62
2022/08/10 09:05:03;;;;;;;0.67;0.40;;;;;;;22.68;44.97;96085.31;4265804;33;20194;-62
2022/08/10 09:07:32;;;;;;;0.63;0.63;;;;;;;22.71;44.96;96088.09;4282812;33;20238;-62
2022/08/10 09:10:17;;;;;;;0.40;0.40;;;;;;;22.80;44.60;96080.63;4272354;33;20186;-62
2022/08/10 09:13:01;;;;;;;4.20;0.80;;;;;;;22.78;44.76;96072.06;4277989;33;20199;-62
2022/08/10 09:15:37;;;;;;;0.60;0.60;;;;;;;22.84;45.14;96069.88;4265802;33;20246;-62
2022/08/10 09:18:30;;;;;;;0.30;0.30;;;;;;;22.96;44.33;96078.66;4285317;33;20198;-62
2022/08/10 09:21:12;;;;;;;0.40;0.40;;;;;;;22.90;44.14;96090.09;4276533;33;20255;-62
2022/08/10 09:23:57;;;;;;;0.60;0.60;;;;;;;22.94;43.94;96080.91;4273570;33;20194;-63
2022/08/10 09:26:41;;;;;;;0.33;0.33;;;;;;;22.92;43.88;96077.00;4275617;33;20199;-62
2022/08/10 09:29:16;;;;;;;0.40;0.40;;;;;;;23.00;44.11;96084.13;4276899;33;20201;-62
2022/08/10 09:31:49;;;;;;;0.83;0.60;;;;;;;23.09;42.99;96082.00;4274042;33;20237;-62
2022/08/10 09:34:37;;;;;;;0.40;0.40;;;;;;;23.02;42.42;96081.88;4274045;33;20305;-62
2022/08/10 09:37:15;;;;;;;0.53;0.30;;;;;;;23.03;42.29;96072.59;4271527;33;20245;-61
2022/08/10 09:39:51;;;;;;;0.40;0.40;;;;;;;23.05;42.36;96081.16;4279793;33;20230;-62
2022/08/10 09:42:41;;;;;;;0.27;0.27;;;;;;;23.08;41.97;96068.81;4275539;33;20198;-62
2022/08/10 09:45:29;;;;;;;0.40;0.40;;;;;;;23.13;41.37;96066.63;4269608;33;20209;-62
2022/08/10 09:48:42;;;;;;;0.10;0.10;;;;;;;23.22;40.82;96079.97;4274727;33;20253;-62
2022/08/10 09:51:30;;;;;;;1.83;0.87;;;;;;;23.23;41.31;96073.41;4238480;33;20212;-62
2022/08/10 09:54:13;;;;;;;0.30;0.30;;;;;;;23.30;40.26;96082.44;4237674;33;20207;-61
2022/08/10 09:56:44;;;;;;;0.20;0.20;;;;;;;23.28;39.79;96073.88;4281129;33;20202;-61
2022/08/10 09:59:20;;;;;;;0.10;0.10;;;;;;;23.39;40.72;96071.41;4288915;33;20217;-62
2022/08/10 10:01:54;;;;;;;0.10;0.10;;;;;;;23.34;41.05;96079.03;4287241;33;20262;-61
2022/08/10 10:04:26;;;;;;;2.23;0.60;;;;;;;23.42;41.04;96073.41;4297545;33;20224;-61
2022/08/10 10:06:51;;;;;;;0.30;0.20;;;;;;;23.34;40.87;96079.03;4286735;33;20246;-61
2022/08/10 10:09:19;;;;;;;0.40;0.40;;;;;;;23.43;40.79;96069.56;4283233;33;20269;-61
2022/08/10 10:12:12;;;;;;;0.10;0.10;;;;;;;23.53;40.40;96062.78;4273846;33;20229;-63
2022/08/10 10:17:52;;;;;;;0.10;0.10;;;;;;;23.64;41.14;96064.56;4296632;33;20275;-61
2022/08/10 10:20:36;;;;;;;0.20;0.20;;;;;;;23.69;41.75;96060.00;4301080;33;20193;-61
2022/08/10 10:23:20;;;;;;;0.20;0.20;;;;;;;23.72;41.17;96060.06;4302066;33;20199;-62
2022/08/10 10:25:54;;;;;;;0.33;0.33;;;;;;;23.74;41.78;96057.78;4286489;33;20182;-61
2022/08/10 10:28:37;;;;;;;0.33;0.33;;;;;;;23.79;42.12;96070.25;4298111;33;20252;-61
2022/08/10 10:31:23;;;;;;;0.33;0.33;;;;;;;23.81;42.34;96060.63;4281585;33;20242;-61
2022/08/10 10:34:12;;;;;;;0.30;0.30;;;;;;;23.86;42.23;96062.25;4286869;33;20190;-61
2022/08/10 10:36:42;;;;;;;0.30;0.30;;;;;;;23.88;41.88;96059.97;4292647;33;20216;-62
2022/08/10 10:39:12;;;;;;;0.13;0.13;;;;;;;23.85;42.36;96057.97;4297758;33;20209;-61
2022/08/10 10:42:23;;;;;;;2.47;1.07;;;;;;;23.97;42.10;96055.88;4285666;33;20191;-60
2022/08/10 10:45:10;;;;;;;0.37;0.37;;;;;;;24.00;41.96;96048.94;4244682;33;20212;-60
2022/08/10 10:48:12;;;;;;;0.20;0.20;;;;;;;24.16;42.04;96046.09;4291442;33;20303;-60
2022/08/10 10:50:53;;;;;;;0.40;0.40;;;;;;;24.11;42.07;96060.72;4293506;33;20202;-61
2022/08/10 10:53:29;;;;;;;0.40;0.40;;;;;;;23.93;42.33;96057.72;4283727;33;20228;-59
2022/08/10 10:56:33;;;;;;;2.03;0.33;;;;;;;23.84;42.64;96050.97;4298236;33;20206;-60
2022/08/10 10:59:10;;;;;;;0.33;0.33;;;;;;;23.84;42.89;96059.91;4293621;33;20268;-60
2022/08/10 11:02:05;;;;;;;0.30;0.30;;;;;;;23.78;43.00;96042.34;4293336;33;20250;-60
2022/08/10 11:04:30;;;;;;;0.63;0.63;;;;;;;23.79;42.96;96049.34;4284431;33;20202;-62
2022/08/10 11:07:09;;;;;;;0.40;0.37;;;;;;;23.88;42.85;96052.63;4294023;33;20221;-60
2022/08/10 11:10:00;;;;;;;0.60;0.60;;;;;;;23.87;42.73;96056.47;4280288;33;20236;-60
2022/08/10 11:12:30;;;;;;;1.83;0.47;;;;;;;23.73;42.95;96053.50;4290884;33;20232;-60
2022/08/10 11:15:08;;;;;;;0.20;0.20;;;;;;;23.68;43.27;96061.94;4279219;33;20226;-60
2022/08/10 11:18:03;;;;;;;2.63;1.03;;;;;;;23.74;42.32;96054.28;4284463;33;20191;-60
2022/08/10 11:21:00;;;;;;;0.43;0.43;;;;;;;23.64;42.40;96063.78;4280462;33;20277;-60
2022/08/10 11:23:51;;;;;;;0.33;0.33;;;;;;;23.74;42.73;96056.97;4297390;33;20214;-60
2022/08/10 11:26:24;;;;;;;0.33;0.33;;;;;;;23.86;42.56;96063.03;4295088;33;20209;-60
2022/08/10 11:29:00;;;;;;;2.93;1.00;;;;;;;23.86;42.89;96057.62;4277185;33;20191;-60
2022/08/10 11:31:33;;;;;;;0.47;0.47;;;;;;;23.92;42.72;96066.22;4271929;33;20185;-60
2022/08/10 11:34:11;;;;;;;0.33;0.33;;;;;;;23.87;42.98;96072.75;4285792;33;20241;-60
2022/08/10 11:37:01;;;;;;;0.33;0.33;;;;;;;23.81;42.30;96070.69;4282648;33;20198;-60
2022/08/10 11:39:47;;;;;;;0.20;0.20;;;;;;;23.83;42.63;96060.25;4275672;33;20261;-60
2022/08/10 11:42:40;;;;;;;0.50;0.50;;;;;;;23.99;42.47;96066.34;4281820;33;20194;-60
2022/08/10 11:45:16;;;;;;;0.30;0.30;;;;;;;24.06;42.15;96057.56;4288772;33;20238;-60
2022/08/10 11:47:52;;;;;;;0.50;0.50;;;;;;;24.14;41.44;96072.78;4284651;33;20209;-60
2022/08/10 11:50:32;;;;;;;0.50;0.50;;;;;;;24.14;41.26;96064.66;4296666;33;20265;-61
2022/08/10 11:53:06;;;;;;;0.20;0.20;;;;;;;24.08;41.17;96066.13;4282808;33;20182;-61
2022/08/10 11:55:33;;;;;;;0.10;0.10;;;;;;;24.01;41.33;96072.19;4298677;33;20199;-61
2022/08/10 11:59:55;;;;;;;0.40;0.40;;;;;;;24.04;41.04;96062.56;4294818;33;20348;-61
2022/08/10 12:00:58;;;;;;;0.47;0.40;;;;;;;23.97;41.04;96055.88;4291442;33;20194;-60
2022/08/10 12:03:25;;;;;;;0.60;0.60;;;;;;;23.91;41.00;96061.94;4281025;33;20234;-60
2022/08/10 12:05:53;;;;;;;0.27;0.27;;;;;;;23.87;40.85;96052.97;4300427;33;20261;-60
2022/08/10 12:08:20;;;;;;;2.13;0.30;;;;;;;24.03;40.84;96063.69;4286707;33;20190;-61